<?xml version="1.0" encoding="UTF-8" standalone="no" ?>
<gpx xmlns="http://www.topografix.com/GPX/1/1" xmlns:xsi="http://www.w3.org/2001/XMLSchema-instance" xsi:schemaLocation="http://www.topografix.com/GPX/1/1 http://www.topografix.com/GPX/1/1/gpx.xsd" version="1.1" creator="VisuGPX - https://www.visugpx.com">
  <metadata>
    <name>33 SPOY CIRCUIT SUR ETANG</name>
    <desc><![CDATA[SPOY CIRCUIT GRAVEL pour débuter dans le gravel pour famille]]></desc>
  </metadata>
  <trk>
    <name><![CDATA[33. Circuit sur étang, Spoy-17237885]]></name>
    <extensions>
      <line xmlns="http://www.topografix.com/GPX/gpx_style/0/2">
        <color>0000FF</color>
        <width>4</width>
      </line>
    </extensions>
    <trkseg>
      <trkpt lat="48.22809" lon="4.6199">
        <ele>178</ele>
        <time>2024-10-11T12:24:06Z</time>
      </trkpt>
      <trkpt lat="48.22671" lon="4.62079">
        <ele>178</ele>
        <time>2024-10-11T12:24:33Z</time>
      </trkpt>
      <trkpt lat="48.22614" lon="4.62522">
        <ele>176</ele>
        <time>2024-10-11T12:25:26Z</time>
      </trkpt>
      <trkpt lat="48.22603" lon="4.62628">
        <ele>177</ele>
        <time>2024-10-11T12:25:39Z</time>
      </trkpt>
      <trkpt lat="48.22598" lon="4.62757">
        <ele>179</ele>
        <time>2024-10-11T12:25:54Z</time>
      </trkpt>
      <trkpt lat="48.22583" lon="4.62968">
        <ele>194</ele>
        <time>2024-10-11T12:26:19Z</time>
      </trkpt>
      <trkpt lat="48.22588" lon="4.63056">
        <ele>201</ele>
        <time>2024-10-11T12:26:30Z</time>
      </trkpt>
      <trkpt lat="48.22642" lon="4.63324">
        <ele>231</ele>
        <time>2024-10-11T12:27:03Z</time>
      </trkpt>
      <trkpt lat="48.22658" lon="4.63385">
        <ele>234</ele>
        <time>2024-10-11T12:27:11Z</time>
      </trkpt>
      <trkpt lat="48.22718" lon="4.6355">
        <ele>249</ele>
        <time>2024-10-11T12:27:33Z</time>
      </trkpt>
      <trkpt lat="48.22733" lon="4.63604">
        <ele>253</ele>
        <time>2024-10-11T12:27:40Z</time>
      </trkpt>
      <trkpt lat="48.22736" lon="4.63637">
        <ele>255</ele>
        <time>2024-10-11T12:27:44Z</time>
      </trkpt>
      <trkpt lat="48.22728" lon="4.63719">
        <ele>261</ele>
        <time>2024-10-11T12:27:54Z</time>
      </trkpt>
      <trkpt lat="48.22703" lon="4.63814">
        <ele>267</ele>
        <time>2024-10-11T12:28:06Z</time>
      </trkpt>
      <trkpt lat="48.22681" lon="4.63868">
        <ele>269</ele>
        <time>2024-10-11T12:28:13Z</time>
      </trkpt>
      <trkpt lat="48.22679" lon="4.63876">
        <ele>269</ele>
        <time>2024-10-11T12:28:14Z</time>
      </trkpt>
      <trkpt lat="48.22684" lon="4.63883">
        <ele>270</ele>
        <time>2024-10-11T12:28:16Z</time>
      </trkpt>
      <trkpt lat="48.22696" lon="4.63873">
        <ele>269</ele>
        <time>2024-10-11T12:28:18Z</time>
      </trkpt>
      <trkpt lat="48.22748" lon="4.63759">
        <ele>263</ele>
        <time>2024-10-11T12:28:34Z</time>
      </trkpt>
      <trkpt lat="48.22762" lon="4.63711">
        <ele>261</ele>
        <time>2024-10-11T12:28:41Z</time>
      </trkpt>
      <trkpt lat="48.22771" lon="4.6363">
        <ele>258</ele>
        <time>2024-10-11T12:28:50Z</time>
      </trkpt>
      <trkpt lat="48.22772" lon="4.63551">
        <ele>258</ele>
        <time>2024-10-11T12:29:00Z</time>
      </trkpt>
      <trkpt lat="48.22766" lon="4.63463">
        <ele>259</ele>
        <time>2024-10-11T12:29:10Z</time>
      </trkpt>
      <trkpt lat="48.22732" lon="4.63282">
        <ele>254</ele>
        <time>2024-10-11T12:29:33Z</time>
      </trkpt>
      <trkpt lat="48.22733" lon="4.63264">
        <ele>254</ele>
        <time>2024-10-11T12:29:35Z</time>
      </trkpt>
      <trkpt lat="48.22741" lon="4.6324">
        <ele>256</ele>
        <time>2024-10-11T12:29:38Z</time>
      </trkpt>
      <trkpt lat="48.22781" lon="4.63177">
        <ele>259</ele>
        <time>2024-10-11T12:29:48Z</time>
      </trkpt>
      <trkpt lat="48.22886" lon="4.62983">
        <ele>253</ele>
        <time>2024-10-11T12:30:18Z</time>
      </trkpt>
      <trkpt lat="48.22982" lon="4.6287">
        <ele>245</ele>
        <time>2024-10-11T12:30:40Z</time>
      </trkpt>
      <trkpt lat="48.23034" lon="4.62816">
        <ele>241</ele>
        <time>2024-10-11T12:30:51Z</time>
      </trkpt>
      <trkpt lat="48.2316" lon="4.62719">
        <ele>230</ele>
        <time>2024-10-11T12:31:16Z</time>
      </trkpt>
      <trkpt lat="48.23184" lon="4.62712">
        <ele>228</ele>
        <time>2024-10-11T12:31:20Z</time>
      </trkpt>
      <trkpt lat="48.2329" lon="4.62705">
        <ele>220</ele>
        <time>2024-10-11T12:31:39Z</time>
      </trkpt>
      <trkpt lat="48.23297" lon="4.62698">
        <ele>219</ele>
        <time>2024-10-11T12:31:41Z</time>
      </trkpt>
      <trkpt lat="48.233" lon="4.62682">
        <ele>216</ele>
        <time>2024-10-11T12:31:43Z</time>
      </trkpt>
      <trkpt lat="48.23297" lon="4.62641">
        <ele>211</ele>
        <time>2024-10-11T12:31:48Z</time>
      </trkpt>
      <trkpt lat="48.23273" lon="4.62561">
        <ele>204</ele>
        <time>2024-10-11T12:31:58Z</time>
      </trkpt>
      <trkpt lat="48.23273" lon="4.62548">
        <ele>202</ele>
        <time>2024-10-11T12:31:59Z</time>
      </trkpt>
      <trkpt lat="48.23292" lon="4.62475">
        <ele>190</ele>
        <time>2024-10-11T12:32:09Z</time>
      </trkpt>
      <trkpt lat="48.23292" lon="4.62456">
        <ele>188</ele>
        <time>2024-10-11T12:32:11Z</time>
      </trkpt>
      <trkpt lat="48.23285" lon="4.62432">
        <ele>186</ele>
        <time>2024-10-11T12:32:14Z</time>
      </trkpt>
      <trkpt lat="48.2325" lon="4.62374">
        <ele>182</ele>
        <time>2024-10-11T12:32:23Z</time>
      </trkpt>
      <trkpt lat="48.2324" lon="4.62341">
        <ele>178</ele>
        <time>2024-10-11T12:32:28Z</time>
      </trkpt>
      <trkpt lat="48.23211" lon="4.62281">
        <ele>175</ele>
        <time>2024-10-11T12:32:36Z</time>
      </trkpt>
      <trkpt lat="48.23179" lon="4.62188">
        <ele>174</ele>
        <time>2024-10-11T12:32:49Z</time>
      </trkpt>
      <trkpt lat="48.23161" lon="4.62179">
        <ele>175</ele>
        <time>2024-10-11T12:32:52Z</time>
      </trkpt>
      <trkpt lat="48.23096" lon="4.62189">
        <ele>174</ele>
        <time>2024-10-11T12:33:04Z</time>
      </trkpt>
      <trkpt lat="48.23069" lon="4.62186">
        <ele>174</ele>
        <time>2024-10-11T12:33:09Z</time>
      </trkpt>
      <trkpt lat="48.23016" lon="4.6213">
        <ele>174</ele>
        <time>2024-10-11T12:33:20Z</time>
      </trkpt>
      <trkpt lat="48.22938" lon="4.62028">
        <ele>174</ele>
        <time>2024-10-11T12:33:39Z</time>
      </trkpt>
      <trkpt lat="48.22918" lon="4.62012">
        <ele>174</ele>
        <time>2024-10-11T12:33:43Z</time>
      </trkpt>
      <trkpt lat="48.22887" lon="4.62005">
        <ele>175</ele>
        <time>2024-10-11T12:33:48Z</time>
      </trkpt>
      <trkpt lat="48.22876" lon="4.61957">
        <ele>177</ele>
        <time>2024-10-11T12:33:54Z</time>
      </trkpt>
      <trkpt lat="48.22875" lon="4.61947">
        <ele>177</ele>
        <time>2024-10-11T12:33:55Z</time>
      </trkpt>
      <trkpt lat="48.22844" lon="4.61961">
        <ele>178</ele>
        <time>2024-10-11T12:34:01Z</time>
      </trkpt>
      <trkpt lat="48.22822" lon="4.61977">
        <ele>178</ele>
        <time>2024-10-11T12:34:06Z</time>
      </trkpt>
      <trkpt lat="48.22816" lon="4.61984">
        <ele>178</ele>
        <time>2024-10-11T12:34:07Z</time>
      </trkpt>
    </trkseg>
  </trk>
</gpx>